Terminal Aerodrome Forecast
Issued by NWS

Home | Current Version | Previous Version | Text Only | Print | Product List | Glossary On
Versions: 1 2 3 4 5 6 7 8 9 10 11 12 13 14 15 16 17 18 19 20 21 22 23 24 25 26 27 28 29
000
FTUS46 KMTR 270538
TAFSFO
TAF
KSFO 270538Z 2706/2812 27018G28KT P6SM FEW008 BKN010 OVC018
     FM271200 28014G20KT P6SM FEW012 SCT200
     FM272200 28018G28KT P6SM FEW020 SCT250
     FM280400 28014KT P6SM FEW015 SCT250
     FM280800 28010KT P6SM FEW015 SCT250=

USA.gov is the U.S. government's official web portal to all federal, state and local government web resources and services.